sensor_id;sensor_type;location;lat;lon;timestamp;P1;durP1;ratioP1;P2;durP2;ratioP2
44098;SDS011;29762;50.086;14.364;2022-12-10T00:04:24;3.70;;;2.95;;
44098;SDS011;29762;50.086;14.364;2022-12-10T00:09:43;4.00;;;2.97;;
44098;SDS011;29762;50.086;14.364;2022-12-10T00:15:03;3.53;;;3.20;;
44098;SDS011;29762;50.086;14.364;2022-12-10T00:20:22;3.42;;;2.97;;
44098;SDS011;29762;50.086;14.364;2022-12-10T00:25:42;3.85;;;2.75;;
44098;SDS011;29762;50.086;14.364;2022-12-10T00:31:02;3.47;;;2.80;;
44098;SDS011;29762;50.086;14.364;2022-12-10T00:36:28;3.20;;;2.90;;
44098;SDS011;29762;50.086;14.364;2022-12-10T00:41:49;3.17;;;2.80;;
44098;SDS011;29762;50.086;14.364;2022-12-10T00:47:08;3.30;;;2.80;;
44098;SDS011;29762;50.086;14.364;2022-12-10T00:52:28;3.10;;;2.75;;
44098;SDS011;29762;50.086;14.364;2022-12-10T00:57:47;2.75;;;2.45;;
44098;SDS011;29762;50.086;14.364;2022-12-10T01:03:07;3.80;;;2.88;;
44098;SDS011;29762;50.086;14.364;2022-12-10T01:08:26;3.00;;;2.70;;
44098;SDS011;29762;50.086;14.364;2022-12-10T01:13:46;3.75;;;2.78;;
44098;SDS011;29762;50.086;14.364;2022-12-10T01:19:06;3.00;;;2.67;;
44098;SDS011;29762;50.086;14.364;2022-12-10T01:24:28;2.72;;;2.53;;
44098;SDS011;29762;50.086;14.364;2022-12-10T01:29:47;3.15;;;2.80;;
44098;SDS011;29762;50.086;14.364;2022-12-10T01:35:07;3.33;;;3.00;;
44098;SDS011;29762;50.086;14.364;2022-12-10T01:40:27;2.85;;;2.65;;
44098;SDS011;29762;50.086;14.364;2022-12-10T01:45:47;3.15;;;2.85;;
44098;SDS011;29762;50.086;14.364;2022-12-10T01:51:07;3.08;;;2.78;;
44098;SDS011;29762;50.086;14.364;2022-12-10T01:56:27;3.15;;;2.58;;
44098;SDS011;29762;50.086;14.364;2022-12-10T02:13:30;3.47;;;2.60;;
44098;SDS011;29762;50.086;14.364;2022-12-10T02:19:06;2.63;;;2.42;;
44098;SDS011;29762;50.086;14.364;2022-12-10T02:24:33;3.13;;;2.63;;
44098;SDS011;29762;50.086;14.364;2022-12-10T02:29:54;2.65;;;2.45;;
44098;SDS011;29762;50.086;14.364;2022-12-10T02:35:18;3.10;;;2.60;;
44098;SDS011;29762;50.086;14.364;2022-12-10T02:40:42;2.80;;;2.53;;
44098;SDS011;29762;50.086;14.364;2022-12-10T02:46:05;3.08;;;2.67;;
44098;SDS011;29762;50.086;14.364;2022-12-10T02:51:25;4.03;;;2.60;;
44098;SDS011;29762;50.086;14.364;2022-12-10T02:56:48;3.00;;;2.70;;
44098;SDS011;29762;50.086;14.364;2022-12-10T03:02:15;2.58;;;2.38;;
44098;SDS011;29762;50.086;14.364;2022-12-10T03:07:41;3.17;;;2.88;;
44098;SDS011;29762;50.086;14.364;2022-12-10T03:13:09;2.75;;;2.55;;
44098;SDS011;29762;50.086;14.364;2022-12-10T03:18:31;2.60;;;2.40;;
44098;SDS011;29762;50.086;14.364;2022-12-10T03:23:53;2.63;;;2.33;;
44098;SDS011;29762;50.086;14.364;2022-12-10T03:29:15;2.90;;;2.50;;
44098;SDS011;29762;50.086;14.364;2022-12-10T03:34:38;2.85;;;2.58;;
44098;SDS011;29762;50.086;14.364;2022-12-10T03:39:57;2.70;;;2.50;;
44098;SDS011;29762;50.086;14.364;2022-12-10T03:45:17;2.60;;;2.40;;
44098;SDS011;29762;50.086;14.364;2022-12-10T03:50:36;2.97;;;2.45;;
44098;SDS011;29762;50.086;14.364;2022-12-10T03:55:56;2.60;;;2.38;;
44098;SDS011;29762;50.086;14.364;2022-12-10T04:01:15;3.13;;;2.80;;
44098;SDS011;29762;50.086;14.364;2022-12-10T04:06:36;2.67;;;2.47;;
44098;SDS011;29762;50.086;14.364;2022-12-10T04:11:57;2.45;;;2.25;;
44098;SDS011;29762;50.086;14.364;2022-12-10T04:17:17;2.60;;;2.40;;
44098;SDS011;29762;50.086;14.364;2022-12-10T04:22:37;2.92;;;2.40;;
44098;SDS011;29762;50.086;14.364;2022-12-10T04:28:15;2.90;;;2.70;;
44098;SDS011;29762;50.086;14.364;2022-12-10T04:33:34;2.63;;;2.42;;
44098;SDS011;29762;50.086;14.364;2022-12-10T04:38:54;2.30;;;2.10;;
44098;SDS011;29762;50.086;14.364;2022-12-10T04:44:13;3.17;;;2.80;;
44098;SDS011;29762;50.086;14.364;2022-12-10T04:49:33;2.85;;;2.58;;
44098;SDS011;29762;50.086;14.364;2022-12-10T04:54:53;2.60;;;2.40;;
44098;SDS011;29762;50.086;14.364;2022-12-10T05:00:12;3.20;;;2.45;;
44098;SDS011;29762;50.086;14.364;2022-12-10T05:05:33;2.75;;;2.45;;
44098;SDS011;29762;50.086;14.364;2022-12-10T05:10:59;2.70;;;2.50;;
44098;SDS011;29762;50.086;14.364;2022-12-10T05:16:21;2.90;;;2.60;;
44098;SDS011;29762;50.086;14.364;2022-12-10T05:21:41;2.85;;;2.65;;
44098;SDS011;29762;50.086;14.364;2022-12-10T05:27:20;3.05;;;2.63;;
44098;SDS011;29762;50.086;14.364;2022-12-10T05:32:39;2.70;;;2.50;;
44098;SDS011;29762;50.086;14.364;2022-12-10T05:37:58;2.85;;;2.63;;
44098;SDS011;29762;50.086;14.364;2022-12-10T05:43:18;2.88;;;2.53;;
44098;SDS011;29762;50.086;14.364;2022-12-10T05:48:38;3.22;;;2.58;;
44098;SDS011;29762;50.086;14.364;2022-12-10T05:53:58;2.92;;;2.60;;
44098;SDS011;29762;50.086;14.364;2022-12-10T05:59:18;3.05;;;2.75;;
44098;SDS011;29762;50.086;14.364;2022-12-10T06:04:37;3.25;;;2.65;;
44098;SDS011;29762;50.086;14.364;2022-12-10T06:09:56;2.90;;;2.70;;
44098;SDS011;29762;50.086;14.364;2022-12-10T06:15:15;2.92;;;2.55;;
44098;SDS011;29762;50.086;14.364;2022-12-10T06:20:37;2.95;;;2.60;;
44098;SDS011;29762;50.086;14.364;2022-12-10T06:25:58;2.63;;;2.42;;
44098;SDS011;29762;50.086;14.364;2022-12-10T06:31:17;2.97;;;2.58;;
44098;SDS011;29762;50.086;14.364;2022-12-10T06:36:37;3.33;;;2.70;;
44098;SDS011;29762;50.086;14.364;2022-12-10T06:41:57;3.42;;;2.38;;
44098;SDS011;29762;50.086;14.364;2022-12-10T06:47:16;2.60;;;2.40;;
44098;SDS011;29762;50.086;14.364;2022-12-10T06:52:35;2.40;;;2.20;;
44098;SDS011;29762;50.086;14.364;2022-12-10T06:57:54;2.55;;;2.30;;
44098;SDS011;29762;50.086;14.364;2022-12-10T07:03:14;3.92;;;2.70;;
44098;SDS011;29762;50.086;14.364;2022-12-10T07:08:33;2.78;;;2.58;;
44098;SDS011;29762;50.086;14.364;2022-12-10T07:13:54;2.65;;;2.40;;
44098;SDS011;29762;50.086;14.364;2022-12-10T07:19:13;2.75;;;2.55;;
44098;SDS011;29762;50.086;14.364;2022-12-10T07:24:34;4.03;;;2.58;;
44098;SDS011;29762;50.086;14.364;2022-12-10T07:29:53;2.67;;;2.47;;
44098;SDS011;29762;50.086;14.364;2022-12-10T07:35:12;2.78;;;2.58;;
44098;SDS011;29762;50.086;14.364;2022-12-10T07:40:31;2.72;;;2.53;;
44098;SDS011;29762;50.086;14.364;2022-12-10T07:45:51;3.92;;;2.90;;
44098;SDS011;29762;50.086;14.364;2022-12-10T07:51:11;2.78;;;2.58;;
44098;SDS011;29762;50.086;14.364;2022-12-10T07:56:31;2.88;;;2.58;;
44098;SDS011;29762;50.086;14.364;2022-12-10T08:01:51;3.15;;;2.83;;
44098;SDS011;29762;50.086;14.364;2022-12-10T08:07:11;2.95;;;2.65;;
44098;SDS011;29762;50.086;14.364;2022-12-10T08:12:30;2.97;;;2.67;;
44098;SDS011;29762;50.086;14.364;2022-12-10T08:17:50;3.50;;;2.97;;
44098;SDS011;29762;50.086;14.364;2022-12-10T08:23:10;2.85;;;2.60;;
44098;SDS011;29762;50.086;14.364;2022-12-10T08:28:29;3.70;;;2.75;;
44098;SDS011;29762;50.086;14.364;2022-12-10T08:33:49;2.78;;;2.58;;
44098;SDS011;29762;50.086;14.364;2022-12-10T08:39:08;3.40;;;3.10;;
44098;SDS011;29762;50.086;14.364;2022-12-10T08:44:29;2.83;;;2.58;;
44098;SDS011;29762;50.086;14.364;2022-12-10T08:49:48;3.40;;;2.70;;
44098;SDS011;29762;50.086;14.364;2022-12-10T08:55:08;2.72;;;2.53;;
44098;SDS011;29762;50.086;14.364;2022-12-10T09:00:27;3.70;;;2.55;;
44098;SDS011;29762;50.086;14.364;2022-12-10T09:05:47;2.92;;;2.60;;
44098;SDS011;29762;50.086;14.364;2022-12-10T09:11:07;3.90;;;2.92;;
44098;SDS011;29762;50.086;14.364;2022-12-10T09:16:34;5.32;;;3.00;;
44098;SDS011;29762;50.086;14.364;2022-12-10T09:21:55;4.95;;;3.67;;
44098;SDS011;29762;50.086;14.364;2022-12-10T09:27:14;4.65;;;4.18;;
44098;SDS011;29762;50.086;14.364;2022-12-10T09:32:34;6.45;;;4.32;;
44098;SDS011;29762;50.086;14.364;2022-12-10T09:37:53;6.38;;;4.40;;
44098;SDS011;29762;50.086;14.364;2022-12-10T09:43:56;4.53;;;4.13;;
44098;SDS011;29762;50.086;14.364;2022-12-10T09:49:15;4.75;;;4.10;;
44098;SDS011;29762;50.086;14.364;2022-12-10T09:54:50;5.88;;;4.55;;
44098;SDS011;29762;50.086;14.364;2022-12-10T10:00:24;4.93;;;4.43;;
44098;SDS011;29762;50.086;14.364;2022-12-10T10:05:47;9.20;;;7.45;;
44098;SDS011;29762;50.086;14.364;2022-12-10T10:11:12;12.80;;;8.13;;
44098;SDS011;29762;50.086;14.364;2022-12-10T10:16:43;12.05;;;10.00;;
44098;SDS011;29762;50.086;14.364;2022-12-10T10:22:05;19.58;;;12.20;;
44098;SDS011;29762;50.086;14.364;2022-12-10T10:27:26;12.25;;;9.38;;
44098;SDS011;29762;50.086;14.364;2022-12-10T10:32:57;13.73;;;10.38;;
44098;SDS011;29762;50.086;14.364;2022-12-10T10:38:26;16.60;;;10.45;;
44098;SDS011;29762;50.086;14.364;2022-12-10T10:43:46;14.27;;;10.68;;
44098;SDS011;29762;50.086;14.364;2022-12-10T10:49:27;13.13;;;10.68;;
44098;SDS011;29762;50.086;14.364;2022-12-10T10:54:48;13.70;;;10.38;;
44098;SDS011;29762;50.086;14.364;2022-12-10T11:00:21;14.40;;;11.13;;
44098;SDS011;29762;50.086;14.364;2022-12-10T11:05:42;14.38;;;10.13;;
44098;SDS011;29762;50.086;14.364;2022-12-10T11:11:10;14.05;;;10.48;;
44098;SDS011;29762;50.086;14.364;2022-12-10T11:17:17;14.05;;;10.70;;
44098;SDS011;29762;50.086;14.364;2022-12-10T11:22:38;16.95;;;12.27;;
44098;SDS011;29762;50.086;14.364;2022-12-10T11:34:27;17.42;;;13.20;;
44098;SDS011;29762;50.086;14.364;2022-12-10T11:46:05;19.83;;;12.80;;
44098;SDS011;29762;50.086;14.364;2022-12-10T11:51:45;37.42;;;27.30;;
44098;SDS011;29762;50.086;14.364;2022-12-10T12:08:49;19.58;;;14.60;;
44098;SDS011;29762;50.086;14.364;2022-12-10T12:14:21;20.60;;;15.65;;
44098;SDS011;29762;50.086;14.364;2022-12-10T12:19:51;19.50;;;14.80;;
44098;SDS011;29762;50.086;14.364;2022-12-10T12:31:09;19.15;;;14.85;;
44098;SDS011;29762;50.086;14.364;2022-12-10T12:36:32;18.77;;;13.95;;
44098;SDS011;29762;50.086;14.364;2022-12-10T12:41:55;17.45;;;14.02;;
44098;SDS011;29762;50.086;14.364;2022-12-10T12:47:26;17.30;;;13.80;;
44098;SDS011;29762;50.086;14.364;2022-12-10T12:52:58;15.88;;;13.05;;
44098;SDS011;29762;50.086;14.364;2022-12-10T13:03:44;15.18;;;12.13;;
44098;SDS011;29762;50.086;14.364;2022-12-10T13:14:36;14.18;;;11.50;;
44098;SDS011;29762;50.086;14.364;2022-12-10T13:20:39;12.90;;;11.45;;
44098;SDS011;29762;50.086;14.364;2022-12-10T13:26:01;13.23;;;11.55;;
44098;SDS011;29762;50.086;14.364;2022-12-10T13:31:44;14.60;;;11.65;;
44098;SDS011;29762;50.086;14.364;2022-12-10T13:37:05;19.95;;;14.07;;
44098;SDS011;29762;50.086;14.364;2022-12-10T13:42:35;20.10;;;12.20;;
44098;SDS011;29762;50.086;14.364;2022-12-10T13:48:16;19.00;;;12.27;;
44098;SDS011;29762;50.086;14.364;2022-12-10T13:54:31;16.70;;;11.93;;
44098;SDS011;29762;50.086;14.364;2022-12-10T14:11:01;14.70;;;11.07;;
44098;SDS011;29762;50.086;14.364;2022-12-10T14:16:21;15.43;;;10.73;;
44098;SDS011;29762;50.086;14.364;2022-12-10T14:21:42;17.02;;;10.93;;
44098;SDS011;29762;50.086;14.364;2022-12-10T14:32:33;12.27;;;10.13;;
44098;SDS011;29762;50.086;14.364;2022-12-10T14:37:55;12.43;;;9.30;;
44098;SDS011;29762;50.086;14.364;2022-12-10T14:43:20;12.82;;;9.50;;
44098;SDS011;29762;50.086;14.364;2022-12-10T14:48:41;14.80;;;9.27;;
44098;SDS011;29762;50.086;14.364;2022-12-10T14:54:11;14.25;;;9.48;;
44098;SDS011;29762;50.086;14.364;2022-12-10T15:00:06;14.05;;;9.40;;
44098;SDS011;29762;50.086;14.364;2022-12-10T15:05:28;13.50;;;9.55;;
44098;SDS011;29762;50.086;14.364;2022-12-10T15:10:50;11.55;;;9.40;;
44098;SDS011;29762;50.086;14.364;2022-12-10T15:16:46;11.57;;;9.20;;
44098;SDS011;29762;50.086;14.364;2022-12-10T15:22:19;13.10;;;8.85;;
44098;SDS011;29762;50.086;14.364;2022-12-10T15:27:40;11.43;;;9.00;;
44098;SDS011;29762;50.086;14.364;2022-12-10T15:32:59;13.15;;;8.60;;
44098;SDS011;29762;50.086;14.364;2022-12-10T15:38:19;11.40;;;8.95;;
44098;SDS011;29762;50.086;14.364;2022-12-10T15:43:39;14.10;;;8.80;;
44098;SDS011;29762;50.086;14.364;2022-12-10T15:49:10;15.73;;;9.35;;
44098;SDS011;29762;50.086;14.364;2022-12-10T15:59:57;12.23;;;9.90;;
44098;SDS011;29762;50.086;14.364;2022-12-10T16:10:37;11.38;;;8.40;;
44098;SDS011;29762;50.086;14.364;2022-12-10T16:16:02;12.48;;;8.82;;
44098;SDS011;29762;50.086;14.364;2022-12-10T16:21:23;16.48;;;8.52;;
44098;SDS011;29762;50.086;14.364;2022-12-10T16:26:43;10.20;;;8.30;;
44098;SDS011;29762;50.086;14.364;2022-12-10T16:32:02;11.13;;;8.23;;
44098;SDS011;29762;50.086;14.364;2022-12-10T16:37:21;11.95;;;7.95;;
44098;SDS011;29762;50.086;14.364;2022-12-10T16:42:41;13.52;;;8.15;;
44098;SDS011;29762;50.086;14.364;2022-12-10T16:48:00;11.85;;;8.13;;
44098;SDS011;29762;50.086;14.364;2022-12-10T16:53:25;10.45;;;7.10;;
44098;SDS011;29762;50.086;14.364;2022-12-10T16:58:45;11.90;;;7.43;;
44098;SDS011;29762;50.086;14.364;2022-12-10T17:04:04;9.77;;;7.57;;
44098;SDS011;29762;50.086;14.364;2022-12-10T17:09:24;10.27;;;7.55;;
44098;SDS011;29762;50.086;14.364;2022-12-10T17:14:43;10.27;;;7.78;;
44098;SDS011;29762;50.086;14.364;2022-12-10T17:20:10;10.32;;;7.70;;
44098;SDS011;29762;50.086;14.364;2022-12-10T17:25:34;9.75;;;7.47;;
44098;SDS011;29762;50.086;14.364;2022-12-10T17:30:53;10.23;;;8.10;;
44098;SDS011;29762;50.086;14.364;2022-12-10T17:36:13;11.73;;;7.47;;
44098;SDS011;29762;50.086;14.364;2022-12-10T17:41:32;11.73;;;7.28;;
44098;SDS011;29762;50.086;14.364;2022-12-10T17:46:52;14.00;;;7.45;;
44098;SDS011;29762;50.086;14.364;2022-12-10T17:52:13;9.13;;;7.20;;
44098;SDS011;29762;50.086;14.364;2022-12-10T17:57:33;9.35;;;7.35;;
44098;SDS011;29762;50.086;14.364;2022-12-10T18:02:52;11.70;;;7.30;;
44098;SDS011;29762;50.086;14.364;2022-12-10T18:08:13;11.75;;;7.90;;
44098;SDS011;29762;50.086;14.364;2022-12-10T18:13:33;11.63;;;7.10;;
44098;SDS011;29762;50.086;14.364;2022-12-10T18:18:53;10.75;;;7.07;;
44098;SDS011;29762;50.086;14.364;2022-12-10T18:24:13;11.13;;;7.35;;
44098;SDS011;29762;50.086;14.364;2022-12-10T18:29:34;9.80;;;6.85;;
44098;SDS011;29762;50.086;14.364;2022-12-10T18:34:53;7.93;;;6.47;;
44098;SDS011;29762;50.086;14.364;2022-12-10T18:40:17;7.53;;;6.72;;
44098;SDS011;29762;50.086;14.364;2022-12-10T18:45:40;11.43;;;7.15;;
44098;SDS011;29762;50.086;14.364;2022-12-10T18:50:59;8.48;;;6.57;;
44098;SDS011;29762;50.086;14.364;2022-12-10T18:56:20;8.27;;;6.32;;
44098;SDS011;29762;50.086;14.364;2022-12-10T19:01:41;9.63;;;6.78;;
44098;SDS011;29762;50.086;14.364;2022-12-10T19:07:01;8.50;;;6.75;;
44098;SDS011;29762;50.086;14.364;2022-12-10T19:12:21;10.43;;;8.50;;
44098;SDS011;29762;50.086;14.364;2022-12-10T19:17:40;10.73;;;6.95;;
44098;SDS011;29762;50.086;14.364;2022-12-10T19:23:00;11.95;;;6.72;;
44098;SDS011;29762;50.086;14.364;2022-12-10T19:28:19;10.57;;;6.68;;
44098;SDS011;29762;50.086;14.364;2022-12-10T19:33:39;9.82;;;6.40;;
44098;SDS011;29762;50.086;14.364;2022-12-10T19:38:58;8.65;;;6.35;;
44098;SDS011;29762;50.086;14.364;2022-12-10T19:44:18;7.32;;;6.22;;
44098;SDS011;29762;50.086;14.364;2022-12-10T19:49:37;10.07;;;6.03;;
44098;SDS011;29762;50.086;14.364;2022-12-10T19:54:57;9.38;;;6.45;;
44098;SDS011;29762;50.086;14.364;2022-12-10T20:00:19;8.80;;;6.00;;
44098;SDS011;29762;50.086;14.364;2022-12-10T20:05:43;8.05;;;6.05;;
44098;SDS011;29762;50.086;14.364;2022-12-10T20:11:03;8.90;;;6.38;;
44098;SDS011;29762;50.086;14.364;2022-12-10T20:16:23;9.60;;;5.90;;
44098;SDS011;29762;50.086;14.364;2022-12-10T20:21:45;12.80;;;6.07;;
44098;SDS011;29762;50.086;14.364;2022-12-10T20:27:08;10.30;;;6.20;;
44098;SDS011;29762;50.086;14.364;2022-12-10T20:32:30;9.00;;;6.03;;
44098;SDS011;29762;50.086;14.364;2022-12-10T20:37:49;8.77;;;5.57;;
44098;SDS011;29762;50.086;14.364;2022-12-10T20:43:09;10.75;;;5.88;;
44098;SDS011;29762;50.086;14.364;2022-12-10T20:48:29;8.50;;;6.05;;
44098;SDS011;29762;50.086;14.364;2022-12-10T20:53:48;8.70;;;5.63;;
44098;SDS011;29762;50.086;14.364;2022-12-10T20:59:10;9.57;;;6.10;;
44098;SDS011;29762;50.086;14.364;2022-12-10T21:04:31;12.70;;;6.32;;
44098;SDS011;29762;50.086;14.364;2022-12-10T21:09:50;9.07;;;5.57;;
44098;SDS011;29762;50.086;14.364;2022-12-10T21:15:10;12.18;;;6.45;;
44098;SDS011;29762;50.086;14.364;2022-12-10T21:20:30;10.90;;;5.80;;
44098;SDS011;29762;50.086;14.364;2022-12-10T21:25:49;9.48;;;5.80;;
44098;SDS011;29762;50.086;14.364;2022-12-10T21:31:20;9.13;;;5.90;;
44098;SDS011;29762;50.086;14.364;2022-12-10T21:36:41;9.77;;;5.63;;
44098;SDS011;29762;50.086;14.364;2022-12-10T21:42:00;9.63;;;5.85;;
44098;SDS011;29762;50.086;14.364;2022-12-10T21:47:39;8.70;;;5.55;;
44098;SDS011;29762;50.086;14.364;2022-12-10T21:52:59;7.40;;;5.22;;
44098;SDS011;29762;50.086;14.364;2022-12-10T21:58:19;9.50;;;5.55;;
44098;SDS011;29762;50.086;14.364;2022-12-10T22:03:38;7.47;;;5.05;;
44098;SDS011;29762;50.086;14.364;2022-12-10T22:08:59;7.03;;;4.80;;
44098;SDS011;29762;50.086;14.364;2022-12-10T22:14:18;7.47;;;5.05;;
44098;SDS011;29762;50.086;14.364;2022-12-10T22:19:37;7.57;;;4.90;;
44098;SDS011;29762;50.086;14.364;2022-12-10T22:24:57;8.98;;;5.43;;
44098;SDS011;29762;50.086;14.364;2022-12-10T22:30:17;9.52;;;5.20;;
44098;SDS011;29762;50.086;14.364;2022-12-10T22:35:37;7.30;;;4.70;;
44098;SDS011;29762;50.086;14.364;2022-12-10T22:40:59;6.35;;;4.72;;
44098;SDS011;29762;50.086;14.364;2022-12-10T22:46:19;6.25;;;4.47;;
44098;SDS011;29762;50.086;14.364;2022-12-10T22:51:39;8.27;;;4.78;;
44098;SDS011;29762;50.086;14.364;2022-12-10T22:56:58;7.75;;;4.63;;
44098;SDS011;29762;50.086;14.364;2022-12-10T23:02:18;6.35;;;4.53;;
44098;SDS011;29762;50.086;14.364;2022-12-10T23:07:37;9.20;;;4.78;;
44098;SDS011;29762;50.086;14.364;2022-12-10T23:12:58;6.40;;;4.10;;
44098;SDS011;29762;50.086;14.364;2022-12-10T23:18:26;6.88;;;4.57;;
44098;SDS011;29762;50.086;14.364;2022-12-10T23:23:46;6.20;;;4.30;;
44098;SDS011;29762;50.086;14.364;2022-12-10T23:29:05;5.35;;;3.97;;
44098;SDS011;29762;50.086;14.364;2022-12-10T23:34:24;6.03;;;4.07;;
44098;SDS011;29762;50.086;14.364;2022-12-10T23:39:44;6.03;;;4.18;;
44098;SDS011;29762;50.086;14.364;2022-12-10T23:45:04;6.95;;;4.18;;
44098;SDS011;29762;50.086;14.364;2022-12-10T23:50:24;5.88;;;4.40;;
44098;SDS011;29762;50.086;14.364;2022-12-10T23:55:43;4.75;;;3.90;;
